sensor_id;sensor_type;location;lat;lon;timestamp;P1;durP1;ratioP1;P2;durP2;ratioP2
6306;SDS011;3186;54.062;9.962;2024-03-22T00:02:01;16.23;;;11.03;;
6306;SDS011;3186;54.062;9.962;2024-03-22T00:04:27;21.27;;;13.03;;
6306;SDS011;3186;54.062;9.962;2024-03-22T00:06:52;15.77;;;11.70;;
6306;SDS011;3186;54.062;9.962;2024-03-22T00:09:18;19.60;;;13.63;;
6306;SDS011;3186;54.062;9.962;2024-03-22T00:11:44;19.37;;;12.47;;
6306;SDS011;3186;54.062;9.962;2024-03-22T00:14:10;21.70;;;13.00;;
6306;SDS011;3186;54.062;9.962;2024-03-22T00:16:36;22.07;;;12.23;;
6306;SDS011;3186;54.062;9.962;2024-03-22T00:19:02;19.13;;;12.63;;
6306;SDS011;3186;54.062;9.962;2024-03-22T00:21:28;16.33;;;12.07;;
6306;SDS011;3186;54.062;9.962;2024-03-22T00:23:55;22.27;;;13.77;;
6306;SDS011;3186;54.062;9.962;2024-03-22T00:26:22;18.13;;;12.97;;
6306;SDS011;3186;54.062;9.962;2024-03-22T00:28:47;20.43;;;14.43;;
6306;SDS011;3186;54.062;9.962;2024-03-22T00:31:14;24.57;;;15.60;;
6306;SDS011;3186;54.062;9.962;2024-03-22T00:33:40;19.40;;;12.77;;
6306;SDS011;3186;54.062;9.962;2024-03-22T00:36:05;20.70;;;14.60;;
6306;SDS011;3186;54.062;9.962;2024-03-22T00:38:31;22.20;;;15.33;;
6306;SDS011;3186;54.062;9.962;2024-03-22T00:40:57;23.13;;;16.60;;
6306;SDS011;3186;54.062;9.962;2024-03-22T00:43:23;20.47;;;14.67;;
6306;SDS011;3186;54.062;9.962;2024-03-22T00:45:49;22.87;;;13.93;;
6306;SDS011;3186;54.062;9.962;2024-03-22T00:48:15;24.23;;;15.87;;
6306;SDS011;3186;54.062;9.962;2024-03-22T00:50:41;23.40;;;16.27;;
6306;SDS011;3186;54.062;9.962;2024-03-22T00:53:06;22.03;;;16.63;;
6306;SDS011;3186;54.062;9.962;2024-03-22T00:55:33;22.47;;;16.53;;
6306;SDS011;3186;54.062;9.962;2024-03-22T00:57:59;25.83;;;17.83;;
6306;SDS011;3186;54.062;9.962;2024-03-22T01:00:24;25.00;;;17.37;;
6306;SDS011;3186;54.062;9.962;2024-03-22T01:02:50;23.10;;;16.83;;
6306;SDS011;3186;54.062;9.962;2024-03-22T01:05:16;27.17;;;17.80;;
6306;SDS011;3186;54.062;9.962;2024-03-22T01:07:42;24.77;;;16.43;;
6306;SDS011;3186;54.062;9.962;2024-03-22T01:10:08;26.77;;;19.40;;
6306;SDS011;3186;54.062;9.962;2024-03-22T01:12:35;30.40;;;19.50;;
6306;SDS011;3186;54.062;9.962;2024-03-22T01:15:00;27.27;;;18.37;;
6306;SDS011;3186;54.062;9.962;2024-03-22T01:17:26;30.07;;;20.23;;
6306;SDS011;3186;54.062;9.962;2024-03-22T01:19:52;27.70;;;20.70;;
6306;SDS011;3186;54.062;9.962;2024-03-22T01:22:17;28.90;;;20.47;;
6306;SDS011;3186;54.062;9.962;2024-03-22T01:24:43;32.97;;;21.20;;
6306;SDS011;3186;54.062;9.962;2024-03-22T01:27:09;32.40;;;20.67;;
6306;SDS011;3186;54.062;9.962;2024-03-22T01:29:35;29.93;;;21.33;;
6306;SDS011;3186;54.062;9.962;2024-03-22T01:32:01;28.37;;;20.70;;
6306;SDS011;3186;54.062;9.962;2024-03-22T01:34:27;28.80;;;19.87;;
6306;SDS011;3186;54.062;9.962;2024-03-22T01:36:53;27.33;;;20.23;;
6306;SDS011;3186;54.062;9.962;2024-03-22T01:39:19;31.73;;;21.03;;
6306;SDS011;3186;54.062;9.962;2024-03-22T01:41:48;32.00;;;22.13;;
6306;SDS011;3186;54.062;9.962;2024-03-22T01:44:14;29.47;;;21.63;;
6306;SDS011;3186;54.062;9.962;2024-03-22T01:46:41;33.97;;;22.40;;
6306;SDS011;3186;54.062;9.962;2024-03-22T01:49:10;27.20;;;19.87;;
6306;SDS011;3186;54.062;9.962;2024-03-22T01:51:40;33.97;;;21.93;;
6306;SDS011;3186;54.062;9.962;2024-03-22T01:54:08;31.83;;;23.20;;
6306;SDS011;3186;54.062;9.962;2024-03-22T01:56:37;30.60;;;22.37;;
6306;SDS011;3186;54.062;9.962;2024-03-22T01:59:04;33.00;;;22.97;;
6306;SDS011;3186;54.062;9.962;2024-03-22T02:01:31;29.07;;;20.90;;
6306;SDS011;3186;54.062;9.962;2024-03-22T02:03:57;28.83;;;21.30;;
6306;SDS011;3186;54.062;9.962;2024-03-22T02:06:23;32.97;;;21.73;;
6306;SDS011;3186;54.062;9.962;2024-03-22T02:08:48;33.73;;;22.03;;
6306;SDS011;3186;54.062;9.962;2024-03-22T02:11:14;31.20;;;22.63;;
6306;SDS011;3186;54.062;9.962;2024-03-22T02:13:40;32.47;;;23.57;;
6306;SDS011;3186;54.062;9.962;2024-03-22T02:16:05;32.00;;;22.03;;
6306;SDS011;3186;54.062;9.962;2024-03-22T02:18:31;36.57;;;23.43;;
6306;SDS011;3186;54.062;9.962;2024-03-22T02:20:57;31.23;;;23.13;;
6306;SDS011;3186;54.062;9.962;2024-03-22T02:26:02;33.23;;;23.90;;
6306;SDS011;3186;54.062;9.962;2024-03-22T02:28:28;30.70;;;23.00;;
6306;SDS011;3186;54.062;9.962;2024-03-22T02:30:54;36.63;;;23.30;;
6306;SDS011;3186;54.062;9.962;2024-03-22T02:33:19;38.47;;;24.20;;
6306;SDS011;3186;54.062;9.962;2024-03-22T02:35:46;35.57;;;23.40;;
6306;SDS011;3186;54.062;9.962;2024-03-22T02:38:12;33.83;;;22.43;;
6306;SDS011;3186;54.062;9.962;2024-03-22T02:40:38;34.53;;;23.83;;
6306;SDS011;3186;54.062;9.962;2024-03-22T02:43:04;33.97;;;25.00;;
6306;SDS011;3186;54.062;9.962;2024-03-22T02:45:30;31.87;;;24.83;;
6306;SDS011;3186;54.062;9.962;2024-03-22T02:47:57;33.53;;;23.97;;
6306;SDS011;3186;54.062;9.962;2024-03-22T02:50:23;32.83;;;23.83;;
6306;SDS011;3186;54.062;9.962;2024-03-22T02:52:49;33.30;;;23.17;;
6306;SDS011;3186;54.062;9.962;2024-03-22T02:55:15;32.93;;;23.10;;
6306;SDS011;3186;54.062;9.962;2024-03-22T02:57:40;32.33;;;23.37;;
6306;SDS011;3186;54.062;9.962;2024-03-22T03:00:06;35.87;;;25.20;;
6306;SDS011;3186;54.062;9.962;2024-03-22T03:02:32;35.20;;;23.57;;
6306;SDS011;3186;54.062;9.962;2024-03-22T03:04:58;36.83;;;25.37;;
6306;SDS011;3186;54.062;9.962;2024-03-22T03:07:24;38.47;;;26.30;;
6306;SDS011;3186;54.062;9.962;2024-03-22T03:09:50;34.97;;;24.63;;
6306;SDS011;3186;54.062;9.962;2024-03-22T03:12:16;36.80;;;24.13;;
6306;SDS011;3186;54.062;9.962;2024-03-22T03:14:42;37.73;;;25.40;;
6306;SDS011;3186;54.062;9.962;2024-03-22T03:17:07;36.93;;;24.37;;
6306;SDS011;3186;54.062;9.962;2024-03-22T03:19:33;33.97;;;25.77;;
6306;SDS011;3186;54.062;9.962;2024-03-22T03:21:59;33.73;;;23.90;;
6306;SDS011;3186;54.062;9.962;2024-03-22T03:24:24;34.10;;;25.53;;
6306;SDS011;3186;54.062;9.962;2024-03-22T03:26:50;39.07;;;27.97;;
6306;SDS011;3186;54.062;9.962;2024-03-22T03:29:16;37.30;;;26.13;;
6306;SDS011;3186;54.062;9.962;2024-03-22T03:31:41;34.87;;;26.33;;
6306;SDS011;3186;54.062;9.962;2024-03-22T03:34:07;42.63;;;28.50;;
6306;SDS011;3186;54.062;9.962;2024-03-22T03:36:32;46.20;;;27.27;;
6306;SDS011;3186;54.062;9.962;2024-03-22T03:42:39;43.10;;;28.47;;
6306;SDS011;3186;54.062;9.962;2024-03-22T03:45:05;42.43;;;26.83;;
6306;SDS011;3186;54.062;9.962;2024-03-22T03:47:31;44.00;;;29.57;;
6306;SDS011;3186;54.062;9.962;2024-03-22T03:49:56;41.77;;;29.37;;
6306;SDS011;3186;54.062;9.962;2024-03-22T03:52:23;39.50;;;26.63;;
6306;SDS011;3186;54.062;9.962;2024-03-22T03:54:48;39.27;;;28.33;;
6306;SDS011;3186;54.062;9.962;2024-03-22T03:57:14;46.63;;;29.90;;
6306;SDS011;3186;54.062;9.962;2024-03-22T03:59:39;45.27;;;28.80;;
6306;SDS011;3186;54.062;9.962;2024-03-22T04:02:05;41.20;;;26.40;;
6306;SDS011;3186;54.062;9.962;2024-03-22T04:04:30;40.67;;;27.50;;
6306;SDS011;3186;54.062;9.962;2024-03-22T04:06:56;48.53;;;29.80;;
6306;SDS011;3186;54.062;9.962;2024-03-22T04:09:22;40.30;;;28.37;;
6306;SDS011;3186;54.062;9.962;2024-03-22T04:11:47;43.77;;;28.97;;
6306;SDS011;3186;54.062;9.962;2024-03-22T04:14:13;41.63;;;27.77;;
6306;SDS011;3186;54.062;9.962;2024-03-22T04:16:38;42.63;;;29.83;;
6306;SDS011;3186;54.062;9.962;2024-03-22T04:19:04;45.43;;;29.37;;
6306;SDS011;3186;54.062;9.962;2024-03-22T04:21:30;44.50;;;30.73;;
6306;SDS011;3186;54.062;9.962;2024-03-22T04:23:55;41.70;;;29.60;;
6306;SDS011;3186;54.062;9.962;2024-03-22T04:26:21;43.67;;;30.07;;
6306;SDS011;3186;54.062;9.962;2024-03-22T04:28:48;43.77;;;31.50;;
6306;SDS011;3186;54.062;9.962;2024-03-22T04:31:14;51.30;;;30.77;;
6306;SDS011;3186;54.062;9.962;2024-03-22T04:33:41;42.57;;;29.97;;
6306;SDS011;3186;54.062;9.962;2024-03-22T04:36:06;48.13;;;31.37;;
6306;SDS011;3186;54.062;9.962;2024-03-22T04:38:34;46.87;;;31.50;;
6306;SDS011;3186;54.062;9.962;2024-03-22T04:41:00;45.37;;;29.70;;
6306;SDS011;3186;54.062;9.962;2024-03-22T04:43:27;46.93;;;30.70;;
6306;SDS011;3186;54.062;9.962;2024-03-22T04:45:53;46.60;;;33.27;;
6306;SDS011;3186;54.062;9.962;2024-03-22T04:48:22;40.43;;;29.23;;
6306;SDS011;3186;54.062;9.962;2024-03-22T04:50:48;47.50;;;31.83;;
6306;SDS011;3186;54.062;9.962;2024-03-22T04:53:19;44.80;;;31.37;;
6306;SDS011;3186;54.062;9.962;2024-03-22T04:55:48;54.37;;;33.30;;
6306;SDS011;3186;54.062;9.962;2024-03-22T04:58:16;43.93;;;31.63;;
6306;SDS011;3186;54.062;9.962;2024-03-22T05:00:43;52.33;;;33.03;;
6306;SDS011;3186;54.062;9.962;2024-03-22T05:03:10;57.07;;;34.90;;
6306;SDS011;3186;54.062;9.962;2024-03-22T05:05:36;53.47;;;35.57;;
6306;SDS011;3186;54.062;9.962;2024-03-22T05:08:02;49.87;;;35.03;;
6306;SDS011;3186;54.062;9.962;2024-03-22T05:10:29;52.13;;;36.13;;
6306;SDS011;3186;54.062;9.962;2024-03-22T05:12:55;52.80;;;35.80;;
6306;SDS011;3186;54.062;9.962;2024-03-22T05:15:21;57.23;;;36.67;;
6306;SDS011;3186;54.062;9.962;2024-03-22T05:17:47;48.80;;;32.90;;
6306;SDS011;3186;54.062;9.962;2024-03-22T05:20:13;53.33;;;36.67;;
6306;SDS011;3186;54.062;9.962;2024-03-22T05:22:40;59.67;;;36.90;;
6306;SDS011;3186;54.062;9.962;2024-03-22T05:25:07;52.83;;;36.97;;
6306;SDS011;3186;54.062;9.962;2024-03-22T05:27:33;58.33;;;39.27;;
6306;SDS011;3186;54.062;9.962;2024-03-22T05:29:59;61.63;;;39.13;;
6306;SDS011;3186;54.062;9.962;2024-03-22T05:32:25;58.77;;;39.47;;
6306;SDS011;3186;54.062;9.962;2024-03-22T05:34:51;62.53;;;38.90;;
6306;SDS011;3186;54.062;9.962;2024-03-22T05:37:18;57.50;;;38.27;;
6306;SDS011;3186;54.062;9.962;2024-03-22T05:39:43;60.97;;;41.47;;
6306;SDS011;3186;54.062;9.962;2024-03-22T05:42:09;72.43;;;42.13;;
6306;SDS011;3186;54.062;9.962;2024-03-22T05:44:35;65.40;;;41.40;;
6306;SDS011;3186;54.062;9.962;2024-03-22T05:47:00;57.57;;;40.17;;
6306;SDS011;3186;54.062;9.962;2024-03-22T05:49:26;62.10;;;39.43;;
6306;SDS011;3186;54.062;9.962;2024-03-22T05:51:52;60.23;;;40.47;;
6306;SDS011;3186;54.062;9.962;2024-03-22T05:54:18;61.73;;;42.57;;
6306;SDS011;3186;54.062;9.962;2024-03-22T05:56:43;64.33;;;41.17;;
6306;SDS011;3186;54.062;9.962;2024-03-22T05:59:09;61.23;;;40.93;;
6306;SDS011;3186;54.062;9.962;2024-03-22T06:01:36;67.43;;;44.50;;
6306;SDS011;3186;54.062;9.962;2024-03-22T06:04:03;68.37;;;43.07;;
6306;SDS011;3186;54.062;9.962;2024-03-22T06:06:29;74.00;;;45.27;;
6306;SDS011;3186;54.062;9.962;2024-03-22T06:08:55;73.03;;;47.27;;
6306;SDS011;3186;54.062;9.962;2024-03-22T06:11:22;69.93;;;46.23;;
6306;SDS011;3186;54.062;9.962;2024-03-22T06:13:47;72.40;;;44.40;;
6306;SDS011;3186;54.062;9.962;2024-03-22T06:16:13;70.47;;;45.47;;
6306;SDS011;3186;54.062;9.962;2024-03-22T06:18:39;89.93;;;49.43;;
6306;SDS011;3186;54.062;9.962;2024-03-22T06:21:05;71.40;;;45.70;;
6306;SDS011;3186;54.062;9.962;2024-03-22T06:23:32;70.63;;;44.67;;
6306;SDS011;3186;54.062;9.962;2024-03-22T06:25:57;74.23;;;47.43;;
6306;SDS011;3186;54.062;9.962;2024-03-22T06:28:24;77.33;;;48.13;;
6306;SDS011;3186;54.062;9.962;2024-03-22T06:30:50;85.37;;;47.73;;
6306;SDS011;3186;54.062;9.962;2024-03-22T06:33:16;75.47;;;48.87;;
6306;SDS011;3186;54.062;9.962;2024-03-22T06:35:41;74.97;;;49.17;;
6306;SDS011;3186;54.062;9.962;2024-03-22T06:38:07;79.20;;;47.67;;
6306;SDS011;3186;54.062;9.962;2024-03-22T06:40:33;80.00;;;49.00;;
6306;SDS011;3186;54.062;9.962;2024-03-22T06:42:59;80.13;;;47.57;;
6306;SDS011;3186;54.062;9.962;2024-03-22T06:45:25;80.60;;;50.67;;
6306;SDS011;3186;54.062;9.962;2024-03-22T06:47:50;79.10;;;48.63;;
6306;SDS011;3186;54.062;9.962;2024-03-22T06:50:16;84.90;;;51.27;;
6306;SDS011;3186;54.062;9.962;2024-03-22T06:52:49;77.97;;;48.67;;
6306;SDS011;3186;54.062;9.962;2024-03-22T06:55:19;89.30;;;52.33;;
6306;SDS011;3186;54.062;9.962;2024-03-22T06:57:47;79.60;;;48.70;;
6306;SDS011;3186;54.062;9.962;2024-03-22T07:00:13;80.10;;;48.03;;
6306;SDS011;3186;54.062;9.962;2024-03-22T07:02:39;87.23;;;51.10;;
6306;SDS011;3186;54.062;9.962;2024-03-22T07:05:06;78.70;;;51.20;;
6306;SDS011;3186;54.062;9.962;2024-03-22T07:07:32;90.00;;;53.17;;
6306;SDS011;3186;54.062;9.962;2024-03-22T07:09:58;87.40;;;52.03;;
6306;SDS011;3186;54.062;9.962;2024-03-22T07:12:24;95.07;;;52.37;;
6306;SDS011;3186;54.062;9.962;2024-03-22T07:14:50;80.77;;;50.37;;
6306;SDS011;3186;54.062;9.962;2024-03-22T07:17:15;85.43;;;53.67;;
6306;SDS011;3186;54.062;9.962;2024-03-22T07:19:41;86.37;;;50.03;;
6306;SDS011;3186;54.062;9.962;2024-03-22T07:22:07;81.07;;;50.63;;
6306;SDS011;3186;54.062;9.962;2024-03-22T07:24:33;79.23;;;49.20;;
6306;SDS011;3186;54.062;9.962;2024-03-22T07:26:59;86.07;;;51.50;;
6306;SDS011;3186;54.062;9.962;2024-03-22T07:29:24;90.87;;;53.97;;
6306;SDS011;3186;54.062;9.962;2024-03-22T07:31:50;90.27;;;54.57;;
6306;SDS011;3186;54.062;9.962;2024-03-22T07:34:15;81.60;;;50.60;;
6306;SDS011;3186;54.062;9.962;2024-03-22T07:36:41;80.90;;;52.97;;
6306;SDS011;3186;54.062;9.962;2024-03-22T07:39:07;92.20;;;52.93;;
6306;SDS011;3186;54.062;9.962;2024-03-22T07:41:33;89.00;;;54.13;;
6306;SDS011;3186;54.062;9.962;2024-03-22T07:43:59;90.23;;;55.30;;
6306;SDS011;3186;54.062;9.962;2024-03-22T07:46:26;91.60;;;55.13;;
6306;SDS011;3186;54.062;9.962;2024-03-22T07:48:52;85.87;;;52.47;;
6306;SDS011;3186;54.062;9.962;2024-03-22T07:51:18;85.70;;;52.50;;
6306;SDS011;3186;54.062;9.962;2024-03-22T07:53:44;78.00;;;49.23;;
6306;SDS011;3186;54.062;9.962;2024-03-22T07:56:10;89.03;;;52.43;;
6306;SDS011;3186;54.062;9.962;2024-03-22T07:58:36;88.60;;;52.50;;
6306;SDS011;3186;54.062;9.962;2024-03-22T08:01:03;90.40;;;51.80;;
6306;SDS011;3186;54.062;9.962;2024-03-22T08:03:29;84.57;;;53.50;;
6306;SDS011;3186;54.062;9.962;2024-03-22T08:05:54;80.57;;;51.53;;
6306;SDS011;3186;54.062;9.962;2024-03-22T08:08:20;85.87;;;51.73;;
6306;SDS011;3186;54.062;9.962;2024-03-22T08:10:45;83.57;;;51.53;;
6306;SDS011;3186;54.062;9.962;2024-03-22T08:13:11;91.53;;;51.20;;
6306;SDS011;3186;54.062;9.962;2024-03-22T08:15:37;76.67;;;51.47;;
6306;SDS011;3186;54.062;9.962;2024-03-22T08:18:02;79.03;;;49.13;;
6306;SDS011;3186;54.062;9.962;2024-03-22T08:20:28;80.57;;;50.40;;
6306;SDS011;3186;54.062;9.962;2024-03-22T08:22:55;80.70;;;50.50;;
6306;SDS011;3186;54.062;9.962;2024-03-22T08:25:20;72.73;;;47.50;;
6306;SDS011;3186;54.062;9.962;2024-03-22T08:27:48;76.37;;;48.93;;
6306;SDS011;3186;54.062;9.962;2024-03-22T08:30:13;79.73;;;50.93;;
6306;SDS011;3186;54.062;9.962;2024-03-22T08:32:39;83.83;;;50.97;;
6306;SDS011;3186;54.062;9.962;2024-03-22T08:35:05;74.77;;;48.53;;
6306;SDS011;3186;54.062;9.962;2024-03-22T08:37:31;80.30;;;49.57;;
6306;SDS011;3186;54.062;9.962;2024-03-22T08:39:58;75.23;;;48.03;;
6306;SDS011;3186;54.062;9.962;2024-03-22T08:42:23;83.60;;;50.17;;
6306;SDS011;3186;54.062;9.962;2024-03-22T08:44:49;79.67;;;48.97;;
6306;SDS011;3186;54.062;9.962;2024-03-22T08:47:15;77.60;;;47.83;;
6306;SDS011;3186;54.062;9.962;2024-03-22T08:49:40;77.80;;;50.57;;
6306;SDS011;3186;54.062;9.962;2024-03-22T08:52:08;84.37;;;48.60;;
6306;SDS011;3186;54.062;9.962;2024-03-22T08:54:34;79.80;;;49.33;;
6306;SDS011;3186;54.062;9.962;2024-03-22T08:57:00;72.57;;;46.43;;
6306;SDS011;3186;54.062;9.962;2024-03-22T08:59:26;72.50;;;45.23;;
6306;SDS011;3186;54.062;9.962;2024-03-22T09:01:52;65.27;;;43.60;;
6306;SDS011;3186;54.062;9.962;2024-03-22T09:04:17;73.27;;;44.67;;
6306;SDS011;3186;54.062;9.962;2024-03-22T09:06:44;61.23;;;43.23;;
6306;SDS011;3186;54.062;9.962;2024-03-22T09:09:10;67.40;;;41.77;;
6306;SDS011;3186;54.062;9.962;2024-03-22T09:11:36;65.80;;;40.30;;
6306;SDS011;3186;54.062;9.962;2024-03-22T09:14:02;67.67;;;42.63;;
6306;SDS011;3186;54.062;9.962;2024-03-22T09:16:27;62.13;;;40.67;;
6306;SDS011;3186;54.062;9.962;2024-03-22T09:18:53;58.13;;;38.80;;
6306;SDS011;3186;54.062;9.962;2024-03-22T09:21:19;54.80;;;36.50;;
6306;SDS011;3186;54.062;9.962;2024-03-22T09:23:45;52.57;;;35.00;;
6306;SDS011;3186;54.062;9.962;2024-03-22T09:26:10;49.50;;;31.97;;
6306;SDS011;3186;54.062;9.962;2024-03-22T09:28:36;44.83;;;30.50;;
6306;SDS011;3186;54.062;9.962;2024-03-22T09:31:05;43.40;;;30.17;;
6306;SDS011;3186;54.062;9.962;2024-03-22T09:33:33;41.73;;;29.27;;
6306;SDS011;3186;54.062;9.962;2024-03-22T09:35:59;41.57;;;27.53;;
6306;SDS011;3186;54.062;9.962;2024-03-22T09:38:25;36.17;;;26.37;;
6306;SDS011;3186;54.062;9.962;2024-03-22T09:40:50;38.07;;;24.57;;
6306;SDS011;3186;54.062;9.962;2024-03-22T09:43:20;30.90;;;22.10;;
6306;SDS011;3186;54.062;9.962;2024-03-22T09:45:47;25.83;;;19.13;;
6306;SDS011;3186;54.062;9.962;2024-03-22T09:48:14;30.37;;;21.67;;
6306;SDS011;3186;54.062;9.962;2024-03-22T09:50:44;24.83;;;17.80;;
6306;SDS011;3186;54.062;9.962;2024-03-22T09:53:12;27.13;;;20.10;;
6306;SDS011;3186;54.062;9.962;2024-03-22T09:55:38;29.37;;;20.77;;
6306;SDS011;3186;54.062;9.962;2024-03-22T09:58:08;26.43;;;20.53;;
6306;SDS011;3186;54.062;9.962;2024-03-22T10:00:35;26.03;;;18.60;;
6306;SDS011;3186;54.062;9.962;2024-03-22T10:03:01;29.43;;;19.43;;
6306;SDS011;3186;54.062;9.962;2024-03-22T10:05:29;32.30;;;20.83;;
6306;SDS011;3186;54.062;9.962;2024-03-22T10:07:54;31.87;;;22.60;;
6306;SDS011;3186;54.062;9.962;2024-03-22T10:10:20;31.20;;;22.80;;
6306;SDS011;3186;54.062;9.962;2024-03-22T10:12:46;33.60;;;21.77;;
6306;SDS011;3186;54.062;9.962;2024-03-22T10:15:12;33.97;;;25.03;;
6306;SDS011;3186;54.062;9.962;2024-03-22T10:17:39;42.90;;;29.53;;
6306;SDS011;3186;54.062;9.962;2024-03-22T10:20:05;41.87;;;27.10;;
6306;SDS011;3186;54.062;9.962;2024-03-22T10:22:42;44.53;;;29.70;;
6306;SDS011;3186;54.062;9.962;2024-03-22T10:25:09;43.07;;;28.43;;
6306;SDS011;3186;54.062;9.962;2024-03-22T10:27:37;42.33;;;27.03;;
6306;SDS011;3186;54.062;9.962;2024-03-22T10:30:05;32.90;;;22.40;;
6306;SDS011;3186;54.062;9.962;2024-03-22T10:32:35;27.80;;;19.60;;
6306;SDS011;3186;54.062;9.962;2024-03-22T10:35:04;31.43;;;20.47;;
6306;SDS011;3186;54.062;9.962;2024-03-22T10:37:32;27.27;;;16.67;;
6306;SDS011;3186;54.062;9.962;2024-03-22T10:40:02;21.77;;;14.30;;
6306;SDS011;3186;54.062;9.962;2024-03-22T10:42:36;25.70;;;14.77;;
6306;SDS011;3186;54.062;9.962;2024-03-22T10:45:06;16.97;;;12.83;;
6306;SDS011;3186;54.062;9.962;2024-03-22T10:47:34;17.37;;;11.50;;
6306;SDS011;3186;54.062;9.962;2024-03-22T10:52:52;17.10;;;10.80;;
6306;SDS011;3186;54.062;9.962;2024-03-22T10:55:35;15.43;;;11.00;;
6306;SDS011;3186;54.062;9.962;2024-03-22T10:58:04;19.47;;;11.97;;
6306;SDS011;3186;54.062;9.962;2024-03-22T11:00:30;18.63;;;11.87;;
6306;SDS011;3186;54.062;9.962;2024-03-22T11:02:57;14.67;;;9.73;;
6306;SDS011;3186;54.062;9.962;2024-03-22T11:05:23;14.47;;;9.33;;
6306;SDS011;3186;54.062;9.962;2024-03-22T11:08:02;12.30;;;9.03;;
6306;SDS011;3186;54.062;9.962;2024-03-22T11:10:34;12.87;;;9.40;;
6306;SDS011;3186;54.062;9.962;2024-03-22T11:13:01;10.93;;;7.77;;
6306;SDS011;3186;54.062;9.962;2024-03-22T11:15:30;10.47;;;7.63;;
6306;SDS011;3186;54.062;9.962;2024-03-22T11:17:56;10.87;;;7.80;;
6306;SDS011;3186;54.062;9.962;2024-03-22T11:20:22;12.97;;;7.80;;
6306;SDS011;3186;54.062;9.962;2024-03-22T11:22:49;10.70;;;7.70;;
6306;SDS011;3186;54.062;9.962;2024-03-22T11:25:16;12.87;;;7.40;;
6306;SDS011;3186;54.062;9.962;2024-03-22T11:27:43;11.23;;;7.33;;
6306;SDS011;3186;54.062;9.962;2024-03-22T11:30:08;9.47;;;6.50;;
6306;SDS011;3186;54.062;9.962;2024-03-22T11:32:35;8.67;;;6.60;;
6306;SDS011;3186;54.062;9.962;2024-03-22T11:35:12;7.17;;;6.13;;
6306;SDS011;3186;54.062;9.962;2024-03-22T11:37:38;6.47;;;5.53;;
6306;SDS011;3186;54.062;9.962;2024-03-22T11:40:05;7.03;;;4.67;;
6306;SDS011;3186;54.062;9.962;2024-03-22T11:42:35;7.03;;;4.93;;
6306;SDS011;3186;54.062;9.962;2024-03-22T11:45:03;6.43;;;4.50;;
6306;SDS011;3186;54.062;9.962;2024-03-22T11:47:29;4.90;;;4.20;;
6306;SDS011;3186;54.062;9.962;2024-03-22T11:49:55;4.80;;;4.13;;
6306;SDS011;3186;54.062;9.962;2024-03-22T11:52:24;4.67;;;3.80;;
6306;SDS011;3186;54.062;9.962;2024-03-22T11:54:54;4.23;;;3.90;;
6306;SDS011;3186;54.062;9.962;2024-03-22T11:57:23;5.63;;;3.93;;
6306;SDS011;3186;54.062;9.962;2024-03-22T11:59:49;3.77;;;3.47;;
6306;SDS011;3186;54.062;9.962;2024-03-22T12:02:15;5.53;;;3.80;;
6306;SDS011;3186;54.062;9.962;2024-03-22T12:04:45;6.93;;;3.17;;
6306;SDS011;3186;54.062;9.962;2024-03-22T12:07:15;5.17;;;3.43;;
6306;SDS011;3186;54.062;9.962;2024-03-22T12:09:41;5.67;;;3.63;;
6306;SDS011;3186;54.062;9.962;2024-03-22T12:12:08;3.87;;;3.47;;
6306;SDS011;3186;54.062;9.962;2024-03-22T12:14:35;3.37;;;3.07;;
6306;SDS011;3186;54.062;9.962;2024-03-22T12:17:03;4.80;;;3.47;;
6306;SDS011;3186;54.062;9.962;2024-03-22T12:19:30;4.00;;;3.40;;
6306;SDS011;3186;54.062;9.962;2024-03-22T12:21:55;5.73;;;3.47;;
6306;SDS011;3186;54.062;9.962;2024-03-22T12:24:22;3.43;;;2.93;;
6306;SDS011;3186;54.062;9.962;2024-03-22T12:26:48;4.67;;;3.37;;
6306;SDS011;3186;54.062;9.962;2024-03-22T12:29:15;5.43;;;3.67;;
6306;SDS011;3186;54.062;9.962;2024-03-22T12:31:41;5.27;;;3.87;;
6306;SDS011;3186;54.062;9.962;2024-03-22T12:34:07;4.43;;;3.40;;
6306;SDS011;3186;54.062;9.962;2024-03-22T12:36:33;4.97;;;4.03;;
6306;SDS011;3186;54.062;9.962;2024-03-22T12:38:59;3.87;;;3.50;;
6306;SDS011;3186;54.062;9.962;2024-03-22T12:41:25;7.97;;;3.87;;
6306;SDS011;3186;54.062;9.962;2024-03-22T12:43:51;5.73;;;3.83;;
6306;SDS011;3186;54.062;9.962;2024-03-22T12:46:16;6.83;;;4.00;;
6306;SDS011;3186;54.062;9.962;2024-03-22T12:48:42;5.13;;;3.90;;
6306;SDS011;3186;54.062;9.962;2024-03-22T12:51:08;7.73;;;3.73;;
6306;SDS011;3186;54.062;9.962;2024-03-22T12:53:33;6.50;;;3.80;;
6306;SDS011;3186;54.062;9.962;2024-03-22T12:55:59;7.33;;;4.07;;
6306;SDS011;3186;54.062;9.962;2024-03-22T12:58:25;7.77;;;4.40;;
6306;SDS011;3186;54.062;9.962;2024-03-22T13:00:50;4.70;;;3.37;;
6306;SDS011;3186;54.062;9.962;2024-03-22T13:03:16;7.60;;;3.73;;
6306;SDS011;3186;54.062;9.962;2024-03-22T13:05:42;10.00;;;3.67;;
6306;SDS011;3186;54.062;9.962;2024-03-22T13:08:08;7.97;;;4.53;;
6306;SDS011;3186;54.062;9.962;2024-03-22T13:10:33;10.27;;;4.50;;
6306;SDS011;3186;54.062;9.962;2024-03-22T13:12:59;8.50;;;3.93;;
6306;SDS011;3186;54.062;9.962;2024-03-22T13:15:25;13.43;;;4.97;;
6306;SDS011;3186;54.062;9.962;2024-03-22T13:17:51;11.77;;;5.30;;
6306;SDS011;3186;54.062;9.962;2024-03-22T13:20:21;11.67;;;4.43;;
6306;SDS011;3186;54.062;9.962;2024-03-22T13:22:47;20.47;;;5.27;;
6306;SDS011;3186;54.062;9.962;2024-03-22T13:25:12;14.27;;;5.43;;
6306;SDS011;3186;54.062;9.962;2024-03-22T13:27:38;14.03;;;5.47;;
6306;SDS011;3186;54.062;9.962;2024-03-22T13:30:07;19.80;;;5.73;;
6306;SDS011;3186;54.062;9.962;2024-03-22T13:32:37;22.70;;;6.07;;
6306;SDS011;3186;54.062;9.962;2024-03-22T13:35:04;18.77;;;5.93;;
6306;SDS011;3186;54.062;9.962;2024-03-22T13:37:30;15.87;;;6.07;;
6306;SDS011;3186;54.062;9.962;2024-03-22T13:39:56;25.57;;;6.90;;
6306;SDS011;3186;54.062;9.962;2024-03-22T13:42:22;21.57;;;7.10;;
6306;SDS011;3186;54.062;9.962;2024-03-22T13:44:48;33.53;;;7.83;;
6306;SDS011;3186;54.062;9.962;2024-03-22T13:47:14;21.73;;;6.40;;
6306;SDS011;3186;54.062;9.962;2024-03-22T13:49:39;25.43;;;7.30;;
6306;SDS011;3186;54.062;9.962;2024-03-22T13:52:08;33.03;;;7.37;;
6306;SDS011;3186;54.062;9.962;2024-03-22T13:54:34;20.63;;;7.37;;
6306;SDS011;3186;54.062;9.962;2024-03-22T13:57:00;25.80;;;6.97;;
6306;SDS011;3186;54.062;9.962;2024-03-22T13:59:27;29.17;;;7.53;;
6306;SDS011;3186;54.062;9.962;2024-03-22T14:01:56;27.80;;;7.07;;
6306;SDS011;3186;54.062;9.962;2024-03-22T14:04:25;23.37;;;7.37;;
6306;SDS011;3186;54.062;9.962;2024-03-22T14:06:54;25.47;;;7.23;;
6306;SDS011;3186;54.062;9.962;2024-03-22T14:09:19;26.97;;;7.10;;
6306;SDS011;3186;54.062;9.962;2024-03-22T14:11:45;28.73;;;7.33;;
6306;SDS011;3186;54.062;9.962;2024-03-22T14:14:13;28.80;;;7.63;;
6306;SDS011;3186;54.062;9.962;2024-03-22T14:16:39;18.93;;;7.00;;
6306;SDS011;3186;54.062;9.962;2024-03-22T14:19:08;23.13;;;7.20;;
6306;SDS011;3186;54.062;9.962;2024-03-22T14:21:34;27.87;;;7.20;;
6306;SDS011;3186;54.062;9.962;2024-03-22T14:24:00;20.40;;;7.07;;
6306;SDS011;3186;54.062;9.962;2024-03-22T14:26:28;21.00;;;6.87;;
6306;SDS011;3186;54.062;9.962;2024-03-22T14:28:53;24.47;;;6.83;;
6306;SDS011;3186;54.062;9.962;2024-03-22T14:31:19;20.47;;;6.57;;
6306;SDS011;3186;54.062;9.962;2024-03-22T14:33:45;28.63;;;7.03;;
6306;SDS011;3186;54.062;9.962;2024-03-22T14:36:11;29.37;;;7.93;;
6306;SDS011;3186;54.062;9.962;2024-03-22T14:38:38;28.30;;;7.20;;
6306;SDS011;3186;54.062;9.962;2024-03-22T14:41:04;17.50;;;5.97;;
6306;SDS011;3186;54.062;9.962;2024-03-22T14:43:29;25.97;;;7.13;;
6306;SDS011;3186;54.062;9.962;2024-03-22T14:45:59;20.00;;;7.17;;
6306;SDS011;3186;54.062;9.962;2024-03-22T14:48:26;19.87;;;6.70;;
6306;SDS011;3186;54.062;9.962;2024-03-22T14:50:52;28.00;;;7.47;;
6306;SDS011;3186;54.062;9.962;2024-03-22T14:53:18;25.17;;;6.93;;
6306;SDS011;3186;54.062;9.962;2024-03-22T14:55:54;22.87;;;6.77;;
6306;SDS011;3186;54.062;9.962;2024-03-22T14:58:24;28.30;;;7.17;;